^^
Meteo Knjazevac Station Historical Data
Daily Summary for September 23, 2021 Units:  English    Metric   Both
Daily Weekly Monthly Yearly Custom
  High: Low: Average:
Temperature: 50 °F 41.9 °F 45 °F
Dew Point: 49.7 °F 40.5 °F 44.2 °F
Humidity: 99% 90% 97%
Wind Speed: 8mph 0mph 2.3mph
Wind Gust: 12mph - -
Wind- - WSW
Pressure: 30.32 in 30.08 in -
Precipitation: 0.13 in    
Historical Graphs
 
 
Tabular Data for September 23, 2021
Time Temperature Dew Point Pressure Wind Wind Speed Wind Gust Humidity Rainfall Rate (Hourly) solar Conditions
00:00 50 °F 49.7 °F 30.08 in Calm   2 mph 99% 0.00 in 0 W/m2
00:10 50 °F 49.7 °F 30.08 in Calm   2 mph 99% 0.00 in 0 W/m2
00:20 50 °F 49.7 °F 30.08 in Calm     99% 0.00 in 0 W/m2
00:30 50 °F 49.7 °F 30.08 in Calm   1 mph 99% 0.00 in 0 W/m2
00:40 49.8 °F 49.6 °F 30.08 in Calm   2 mph 99% 0.00 in 0 W/m2
00:50 49.8 °F 49.6 °F 30.08 in NNW 2 mph 3 mph 99% 0.00 in 0 W/m2
01:00 49.8 °F 49.6 °F 30.09 in Calm   2 mph 99% 0.00 in 0 W/m2
01:10 49.8 °F 49.5 °F 30.09 in WSW 2 mph 5 mph 99% 0.00 in 0 W/m2
01:20 49.6 °F 49.4 °F 30.09 in SW 3 mph 7 mph 99% 0.00 in 0 W/m2
01:30 49.6 °F 49.4 °F 30.09 in SW 2 mph 6 mph 99% 0.00 in 0 W/m2
01:40 49.5 °F 49.2 °F 30.09 in WSW 3 mph 6 mph 99% 0.00 in 0 W/m2
01:50 49.3 °F 48.7 °F 30.10 in WSW 2 mph 5 mph 98% 0.00 in 0 W/m2
02:00 49.1 °F 48.5 °F 30.10 in West 2 mph 6 mph 98% 0.00 in 0 W/m2
02:10 48.7 °F 48.2 °F 30.10 in West 5 mph 8 mph 98% 0.00 in 0 W/m2
02:20 48.7 °F 48.2 °F 30.11 in SW 1 mph 3 mph 98% 0.00 in 0 W/m2
02:30 48.6 °F 48.3 °F 30.11 in South 1 mph 3 mph 99% 0.00 in 0 W/m2
02:40 48.4 °F 48.1 °F 30.11 in Calm   3 mph 99% 0.00 in 0 W/m2
02:50 48.4 °F 48.1 °F 30.11 in WSW 1 mph 4 mph 99% 0.00 in 0 W/m2
03:00 48.2 °F 47.9 °F 30.11 in WSW 2 mph 5 mph 99% 0.00 in 0 W/m2
03:10 47.8 °F 47.6 °F 30.12 in West 2 mph 6 mph 99% 0.00 in 0 W/m2
03:20 47.7 °F 47.4 °F 30.12 in West 3 mph 7 mph 99% 0.00 in 0 W/m2
03:30 47.5 °F 47.2 °F 30.12 in SW 3 mph 6 mph 99% 0.00 in 0 W/m2
03:40 47.3 °F 47 °F 30.12 in WSW 3 mph 8 mph 99% 0.00 in 0 W/m2
03:50 46.9 °F 46.7 °F 30.12 in WSW 3 mph 6 mph 99% 0.00 in 0 W/m2
04:00 46.8 °F 46.5 °F 30.12 in WSW 2 mph 7 mph 99% 0.00 in 0 W/m2
04:10 46.6 °F 46.3 °F 30.12 in WSW 3 mph 6 mph 99% 0.00 in 0 W/m2
04:20 46.4 °F 46.1 °F 30.12 in WSW 3 mph 6 mph 99% 0.00 in 0 W/m2
04:30 46 °F 45.8 °F 30.13 in WSW 5 mph 7 mph 99% 0.00 in 0 W/m2
04:40 45.9 °F 45.6 °F 30.13 in WSW 3 mph 7 mph 99% 0.00 in 0 W/m2
04:50 45.7 °F 45.4 °F 30.13 in WSW 5 mph 8 mph 99% 0.00 in 0 W/m2
05:00 45.5 °F 45.2 °F 30.13 in WSW 3 mph 7 mph 99% 0.00 in 0 W/m2
05:10 45.5 °F 45.2 °F 30.13 in WSW 3 mph 7 mph 99% 0.00 in 0 W/m2
05:20 45.3 °F 45.1 °F 30.14 in WSW 3 mph 7 mph 99% 0.00 in 0 W/m2
05:30 45.1 °F 44.9 °F 30.14 in WSW 5 mph 8 mph 99% 0.00 in 0 W/m2
05:40 45 °F 44.7 °F 30.14 in WSW 3 mph 8 mph 99% 0.00 in 0 W/m2
05:50 45 °F 44.7 °F 30.14 in SW 5 mph 7 mph 99% 0.00 in 0 W/m2
06:00 44.8 °F 44.5 °F 30.14 in SW 6 mph 7 mph 99% 0.00 in 0 W/m2
06:10 44.6 °F 44.3 °F 30.15 in SW 5 mph 8 mph 99% 0.00 in 0 W/m2
06:20 44.6 °F 44.3 °F 30.15 in SW 5 mph 8 mph 99% 0.00 in 0 W/m2
06:30 44.6 °F 44.3 °F 30.15 in SW 5 mph 7 mph 99% 0.00 in 0 W/m2
06:40 44.4 °F 44.2 °F 30.16 in SW 3 mph 8 mph 99% 0.10 in 0 W/m2
06:50 44.4 °F 44.2 °F 30.16 in SW 3 mph 5 mph 99% 0.00 in 1 W/m2
07:00 44.2 °F 44 °F 30.17 in SW 5 mph 8 mph 99% 0.00 in 3 W/m2
07:10 44.2 °F 44 °F 30.17 in SW 3 mph 8 mph 99% 0.00 in 4 W/m2
07:20 44.2 °F 44 °F 30.17 in SW 3 mph 8 mph 99% 0.00 in 5 W/m2
07:30 44.2 °F 44 °F 30.17 in WSW 3 mph 7 mph 99% 0.00 in 8 W/m2
07:40 44.1 °F 43.8 °F 30.17 in SW 3 mph 7 mph 99% 0.00 in 8 W/m2
07:50 44.1 °F 43.8 °F 30.18 in SW 5 mph 6 mph 99% 0.00 in 9 W/m2
08:00 44.1 °F 43.8 °F 30.18 in SW 3 mph 6 mph 99% 0.00 in 19 W/m2
08:10 44.1 °F 43.8 °F 30.19 in SW 2 mph 5 mph 99% 0.00 in 26 W/m2
08:20 44.2 °F 44 °F 30.19 in SW 2 mph 5 mph 99% 0.00 in 33 W/m2
08:30 44.2 °F 44 °F 30.19 in SW 2 mph 5 mph 99% 0.00 in 28 W/m2
08:40 44.4 °F 44.2 °F 30.20 in SW 3 mph 5 mph 99% 0.00 in 24 W/m2
08:50 44.4 °F 44.2 °F 30.20 in SW 3 mph 5 mph 99% 0.00 in 22 W/m2
09:00 44.4 °F 44.2 °F 30.20 in SW 3 mph 6 mph 99% 0.00 in 28 W/m2
09:10 44.4 °F 44.2 °F 30.21 in SW 2 mph 6 mph 99% 0.00 in 43 W/m2
09:20 44.4 °F 44.2 °F 30.21 in SW 5 mph 6 mph 99% 0.00 in 42 W/m2
09:30 44.6 °F 44.3 °F 30.21 in SW 1 mph 6 mph 99% 0.00 in 35 W/m2
09:40 44.6 °F 44.3 °F 30.21 in SSW 2 mph 3 mph 99% 0.00 in 32 W/m2
09:50 44.8 °F 44.5 °F 30.22 in SSW 2 mph 4 mph 99% 0.00 in 28 W/m2
10:00 44.8 °F 44.5 °F 30.22 in SSW 2 mph 3 mph 99% 0.00 in 31 W/m2
10:10 44.8 °F 44.5 °F 30.22 in SW 1 mph 3 mph 99% 0.00 in 42 W/m2
10:20 45 °F 44.7 °F 30.22 in SSW 1 mph 3 mph 99% 0.00 in 40 W/m2
10:30 45 °F 44.7 °F 30.22 in SSW 1 mph 3 mph 99% 0.00 in 53 W/m2
10:40 45 °F 44.7 °F 30.22 in SW 2 mph 3 mph 99% 0.00 in 55 W/m2
10:50 45.1 °F 44.9 °F 30.22 in SSW 1 mph 3 mph 99% 0.00 in 72 W/m2
11:00 45.3 °F 45.1 °F 30.22 in SSW 2 mph 4 mph 99% 0.00 in 72 W/m2
11:10 45.3 °F 45.1 °F 30.22 in SSW 2 mph 3 mph 99% 0.00 in 52 W/m2
11:20 45.3 °F 45.1 °F 30.22 in SW 2 mph 4 mph 99% 0.00 in 64 W/m2
11:30 45.5 °F 45.2 °F 30.22 in SSW 2 mph 4 mph 99% 0.00 in 45 W/m2
11:40 45.5 °F 45.2 °F 30.22 in SW 2 mph 4 mph 99% 0.00 in 30 W/m2
11:50 45.3 °F 45.1 °F 30.22 in SW 3 mph 5 mph 99% 0.00 in 24 W/m2
12:00 45.3 °F 45.1 °F 30.22 in WSW 2 mph 7 mph 99% 0.00 in 28 W/m2
12:10 45.2 °F 44.9 °F 30.22 in SW 5 mph 7 mph 99% 0.00 in 29 W/m2
12:20 45.1 °F 44.9 °F 30.22 in WSW 2 mph 7 mph 99% 0.00 in 31 W/m2
12:30 45.1 °F 44.9 °F 30.22 in WSW 2 mph 6 mph 99% 0.00 in 24 W/m2
12:40 45 °F 44.8 °F 30.23 in SW 3 mph 5 mph 99% 0.00 in 21 W/m2
12:50 45 °F 44.4 °F 30.23 in WSW 2 mph 5 mph 98% 0.00 in 24 W/m2
13:00 45 °F 44.4 °F 30.23 in WSW 1 mph 3 mph 98% 0.00 in 21 W/m2
13:10 45 °F 44.4 °F 30.23 in West 2 mph 4 mph 98% 0.00 in 18 W/m2
13:20 45 °F 44.4 °F 30.23 in SW 2 mph 5 mph 98% 0.00 in 17 W/m2
13:30 45 °F 44.4 °F 30.23 in SW 3 mph 6 mph 98% 0.00 in 16 W/m2
13:40 45 °F 43.9 °F 30.23 in SW 5 mph 8 mph 96% 0.00 in 25 W/m2
13:50 45 °F 43.6 °F 30.23 in WSW 5 mph 8 mph 95% 0.00 in 26 W/m2
14:00 45 °F 43.6 °F 30.23 in WSW 6 mph 9 mph 95% 0.00 in 31 W/m2
14:10 45 °F 43.6 °F 30.23 in WSW 3 mph 12 mph 95% 0.00 in 44 W/m2
14:20 45.1 °F 43.8 °F 30.23 in WSW 5 mph 8 mph 95% 0.00 in 39 W/m2
14:30 45.3 °F 44.2 °F 30.24 in SW 3 mph 7 mph 96% 0.00 in 38 W/m2
14:40 45.3 °F 44 °F 30.24 in WSW 1 mph 5 mph 95% 0.00 in 33 W/m2
14:50 45.4 °F 44 °F 30.24 in WSW 2 mph 7 mph 95% 0.00 in 30 W/m2
15:00 45.5 °F 44.4 °F 30.25 in SW 2 mph 4 mph 96% 0.00 in 25 W/m2
15:10 45.5 °F 44.4 °F 30.25 in West 1 mph 3 mph 96% 0.00 in 20 W/m2
15:20 45.6 °F 44.5 °F 30.25 in West 2 mph 6 mph 96% 0.00 in 14 W/m2
15:30 45.5 °F 43.9 °F 30.25 in WSW 6 mph 8 mph 94% 0.02 in 12 W/m2
15:40 45.3 °F 43.4 °F 30.25 in WSW 5 mph 10 mph 93% 0.00 in 9 W/m2
15:50 45.1 °F 42.7 °F 30.25 in WSW 8 mph 12 mph 91% 0.00 in 5 W/m2
16:00 45 °F 42.5 °F 30.25 in WSW 5 mph 10 mph 91% 0.00 in 0 W/m2
16:10 44.8 °F 42.3 °F 30.25 in WSW 5 mph 9 mph 91% 0.00 in 0 W/m2
16:20 44.7 °F 42 °F 30.25 in WSW 6 mph 10 mph 90% 0.00 in 0 W/m2
16:30 44.6 °F 42.1 °F 30.25 in WSW 3 mph 8 mph 91% 0.00 in 0 W/m2
16:40 44.5 °F 42.1 °F 30.26 in WSW 2 mph 6 mph 91% 0.00 in 0 W/m2
17:00 44.2 °F 41.8 °F 30.26 in WNW 2 mph 7 mph 91% 0.00 in 0 W/m2
17:10 44.2 °F 41.7 °F 30.26 in WNW 1 mph 7 mph 91% 0.00 in 0 W/m2
17:20 44.1 °F 42.2 °F 30.26 in WNW 1 mph 5 mph 93% 0.00 in 0 W/m2
17:30 44.1 °F 42.2 °F 30.27 in NNW 1 mph 6 mph 93% 0.00 in 0 W/m2
17:40 43.9 °F 41.4 °F 30.27 in NW 2 mph 5 mph 91% 0.00 in 0 W/m2
17:50 43.7 °F 41.2 °F 30.27 in NW 2 mph 8 mph 91% 0.00 in 0 W/m2
18:00 43.5 °F 41.1 °F 30.28 in NW 5 mph 8 mph 91% 0.00 in 0 W/m2
18:10 43.3 °F 40.9 °F 30.28 in WNW 5 mph 9 mph 91% 0.00 in 0 W/m2
18:20 43.2 °F 40.7 °F 30.28 in WNW 3 mph 7 mph 91% 0.00 in 0 W/m2
18:30 43 °F 40.5 °F 30.29 in West 2 mph 7 mph 91% 0.00 in 0 W/m2
18:40 43 °F 41.1 °F 30.29 in West 2 mph 5 mph 93% 0.00 in 0 W/m2
18:50 42.8 °F 40.9 °F 30.29 in SW 2 mph 3 mph 93% 0.00 in 0 W/m2
19:00 42.8 °F 40.9 °F 30.30 in WSW 1 mph 3 mph 93% 0.00 in 0 W/m2
19:10 42.8 °F 40.9 °F 30.30 in SW 3 mph 5 mph 93% 0.00 in 0 W/m2
19:20 42.8 °F 40.9 °F 30.30 in WSW 1 mph 5 mph 93% 0.00 in 0 W/m2
19:30 42.8 °F 40.9 °F 30.30 in WSW 2 mph 5 mph 93% 0.00 in 0 W/m2
19:40 42.9 °F 41 °F 30.30 in West 1 mph 2 mph 93% 0.00 in 0 W/m2
19:50 42.8 °F 41.2 °F 30.30 in SW 1 mph 2 mph 94% 0.00 in 0 W/m2
20:00 42.8 °F 41.2 °F 30.31 in Calm   2 mph 94% 0.00 in 0 W/m2
20:10 42.8 °F 41.2 °F 30.30 in WSW 1 mph 3 mph 94% 0.00 in 0 W/m2
20:20 42.8 °F 41.2 °F 30.31 in West 1 mph 3 mph 94% 0.00 in 0 W/m2
20:30 42.8 °F 41.2 °F 30.31 in SW 1 mph 2 mph 94% 0.00 in 0 W/m2
20:40 42.8 °F 41.5 °F 30.31 in Calm   2 mph 95% 0.00 in 0 W/m2
20:50 42.8 °F 41.5 °F 30.31 in Calm   2 mph 95% 0.00 in 0 W/m2
21:00 42.8 °F 41.5 °F 30.31 in Calm   2 mph 95% 0.00 in 0 W/m2
21:10 42.8 °F 41.2 °F 30.31 in WSW 1 mph 3 mph 94% 0.00 in 0 W/m2
21:20 42.8 °F 41.5 °F 30.31 in WNW 1 mph 3 mph 95% 0.00 in 0 W/m2
21:30 42.8 °F 41.5 °F 30.31 in ESE 2 mph 3 mph 95% 0.00 in 0 W/m2
21:40 42.8 °F 41.5 °F 30.31 in Calm   3 mph 95% 0.00 in 0 W/m2
21:50 42.6 °F 41.6 °F 30.31 in Calm   2 mph 96% 0.00 in 0 W/m2
22:00 42.6 °F 41.6 °F 30.31 in Calm   1 mph 96% 0.00 in 0 W/m2
22:10 42.6 °F 41.6 °F 30.31 in Calm   1 mph 96% 0.00 in 0 W/m2
22:20 42.4 °F 41.4 °F 30.32 in Calm   2 mph 96% 0.00 in 0 W/m2
22:30 42.4 °F 41.4 °F 30.32 in SSW 1 mph 2 mph 96% 0.00 in 0 W/m2
22:40 42.4 °F 41.4 °F 30.32 in Calm   2 mph 96% 0.00 in 0 W/m2
22:50 42.4 °F 41.4 °F 30.32 in WNW 1 mph 2 mph 96% 0.00 in 0 W/m2
23:00 42.3 °F 41.2 °F 30.32 in WSW 1 mph 2 mph 96% 0.00 in 0 W/m2
23:10 42.3 °F 41.2 °F 30.32 in Calm   3 mph 96% 0.00 in 0 W/m2
23:20 42.3 °F 41.2 °F 30.32 in Calm   2 mph 96% 0.00 in 0 W/m2
23:30 42.1 °F 41 °F 30.32 in SSW 1 mph 4 mph 96% 0.00 in 0 W/m2
23:40 41.9 °F 40.8 °F 30.32 in WNW 1 mph 2 mph 96% 0.00 in 0 W/m2
23:50 41.9 °F 40.8 °F 30.32 in Calm   2 mph 96% 0.00 in 0 W/m2
Knjazevac, Serbia
Compliments of Weather Underground - 2 mb